createdAt,value
2019-04-26T00:00:10.892Z,14.20
2019-04-26T00:02:46.742Z,14.20
2019-04-26T00:05:16.745Z,14.20
2019-04-26T00:07:46.271Z,14.20
2019-04-26T00:10:19.633Z,14.20
2019-04-26T00:12:50.856Z,14.20
2019-04-26T00:15:27.548Z,14.10
2019-04-26T00:17:58.230Z,14.10
2019-04-26T00:20:27.260Z,14.10
2019-04-26T00:22:57.561Z,14.00
2019-04-26T00:25:26.311Z,13.90
2019-04-26T00:27:56.485Z,13.90
2019-04-26T00:33:00.862Z,13.70
2019-04-26T00:35:29.645Z,13.70
2019-04-26T00:37:58.347Z,13.60
2019-04-26T00:40:27.123Z,13.50
2019-04-26T00:42:57.648Z,13.50
2019-04-26T00:45:29.529Z,13.50
2019-04-26T00:47:59.949Z,13.40
2019-04-26T00:50:29.908Z,13.40
2019-04-26T00:53:00.214Z,13.40
2019-04-26T00:55:30.515Z,13.20
2019-04-26T00:57:59.661Z,13.20
2019-04-26T01:00:28.477Z,13.20
2019-04-26T01:02:57.914Z,13.20
2019-04-26T01:05:29.069Z,13.10
2019-04-26T01:07:58.073Z,13.10
2019-04-26T01:10:26.711Z,13.10
2019-04-26T01:12:55.319Z,13.10
2019-04-26T01:15:26.630Z,13.10
2019-04-26T01:17:55.451Z,13.10
2019-04-26T01:20:26.779Z,13.00
2019-04-26T01:22:58.949Z,12.90
2019-04-26T01:25:45.871Z,12.90
2019-04-26T01:28:18.519Z,12.90
2019-04-26T01:30:48.371Z,12.90
2019-04-26T01:33:17.827Z,12.90
2019-04-26T01:35:48.014Z,12.80
2019-04-26T01:38:17.021Z,12.80
2019-04-26T01:40:47.417Z,12.80
2019-04-26T01:43:24.358Z,12.80
2019-04-26T01:46:00.358Z,12.70
2019-04-26T01:48:44.048Z,12.70
2019-04-26T01:51:15.724Z,12.70
2019-04-26T01:53:47.945Z,12.70
2019-04-26T01:56:18.930Z,12.60
2019-04-26T01:58:48.469Z,12.60
2019-04-26T02:01:18.765Z,12.70
2019-04-26T02:03:47.491Z,12.60
2019-04-26T02:06:25.344Z,12.50
2019-04-26T02:08:46.697Z,12.50
2019-04-26T02:11:15.393Z,12.50
2019-04-26T02:13:44.821Z,12.50
2019-04-26T02:16:13.455Z,12.50
2019-04-26T02:18:42.785Z,12.40
2019-04-26T02:21:16.354Z,12.40
2019-04-26T02:23:58.999Z,12.40
2019-04-26T02:26:37.773Z,12.30
2019-04-26T02:29:12.069Z,12.20
2019-04-26T02:31:43.084Z,12.20
2019-04-26T02:34:13.474Z,12.00
2019-04-26T02:36:56.927Z,11.90
2019-04-26T02:39:22.428Z,12.00
2019-04-26T02:41:54.093Z,11.90
2019-04-26T02:44:28.981Z,11.90
2019-04-26T02:47:24.811Z,11.90
2019-04-26T02:49:57.252Z,11.90
2019-04-26T02:52:49.363Z,11.80
2019-04-26T02:55:49.953Z,11.80
2019-04-26T02:58:22.277Z,11.80
2019-04-26T03:00:52.272Z,11.80
2019-04-26T03:03:23.517Z,11.80
2019-04-26T03:05:54.334Z,11.70
2019-04-26T03:08:26.365Z,11.70
2019-04-26T03:10:57.999Z,11.70
2019-04-26T03:13:32.742Z,11.60
2019-04-26T03:16:18.293Z,11.50
2019-04-26T03:19:03.298Z,11.50
2019-04-26T03:21:47.207Z,11.50
2019-04-26T03:24:21.552Z,11.50
2019-04-26T03:27:14.341Z,11.40
2019-04-26T03:30:19.906Z,11.40
2019-04-26T03:33:09.617Z,11.50
2019-04-26T03:36:00.698Z,11.40
2019-04-26T03:39:04.268Z,11.40
2019-04-26T03:42:03.466Z,11.40
2019-04-26T03:44:38.851Z,11.30
2019-04-26T03:47:10.831Z,11.10
2019-04-26T03:50:02.208Z,11.00
2019-04-26T03:52:52.062Z,11.00
2019-04-26T03:55:28.138Z,10.90
2019-04-26T03:58:23.826Z,10.90
2019-04-26T04:00:55.855Z,11.00
2019-04-26T04:03:41.672Z,11.10
2019-04-26T04:06:12.612Z,11.10
2019-04-26T04:08:48.217Z,11.10
2019-04-26T04:11:26.739Z,11.10
2019-04-26T04:14:01.420Z,11.10
2019-04-26T04:16:59.352Z,11.10
2019-04-26T04:19:58.144Z,11.20
2019-04-26T04:22:40.856Z,11.20
2019-04-26T04:25:14.860Z,11.20
2019-04-26T04:28:03.439Z,11.20
2019-04-26T04:30:42.247Z,11.30
2019-04-26T04:33:32.779Z,11.30
2019-04-26T04:36:04.966Z,11.40
2019-04-26T04:38:44.050Z,11.40
2019-04-26T04:41:26.424Z,11.50
2019-04-26T04:44:07.883Z,11.40
2019-04-26T04:46:52.466Z,11.40
2019-04-26T04:49:48.944Z,11.50
2019-04-26T04:52:21.290Z,11.60
2019-04-26T04:55:06.652Z,11.30
2019-04-26T04:57:50.366Z,11.30
2019-04-26T05:00:41.382Z,11.40
2019-04-26T05:03:26.625Z,11.40
2019-04-26T05:06:38.798Z,11.40
2019-04-26T05:09:13.190Z,11.50
2019-04-26T05:11:51.889Z,11.60
2019-04-26T05:14:43.687Z,11.70
2019-04-26T05:17:41.796Z,11.80
2019-04-26T05:20:37.287Z,12.00
2019-04-26T05:23:42.229Z,12.20
2019-04-26T05:26:51.619Z,12.20
2019-04-26T05:29:33.901Z,12.10
2019-04-26T05:32:22.294Z,12.20
2019-04-26T05:35:10.857Z,12.40
2019-04-26T05:37:49.237Z,12.80
2019-04-26T05:40:39.982Z,13.00
2019-04-26T05:43:19.030Z,13.30
2019-04-26T05:46:23.222Z,13.60
2019-04-26T05:49:29.875Z,13.60
2019-04-26T05:52:22.556Z,13.80
2019-04-26T05:55:34.279Z,13.90
2019-04-26T05:58:12.249Z,13.90
2019-04-26T06:01:02.733Z,13.80
2019-04-26T06:03:54.342Z,13.70
2019-04-26T06:06:33.685Z,13.60
2019-04-26T06:09:26.690Z,13.50
2019-04-26T06:12:24.001Z,13.40
2019-04-26T06:15:21.927Z,13.30
2019-04-26T06:18:10.461Z,13.30
2019-04-26T06:20:45.711Z,13.50
2019-04-26T06:23:26.522Z,13.70
2019-04-26T06:26:37.930Z,13.70
2019-04-26T06:29:09.577Z,13.60
2019-04-26T06:31:46.997Z,13.50
2019-04-26T06:34:18.740Z,13.50
2019-04-26T06:37:10.315Z,13.40
2019-04-26T06:39:47.717Z,13.40
2019-04-26T06:42:28.829Z,13.30
2019-04-26T06:45:26.767Z,13.20
2019-04-26T06:48:00.092Z,13.20
2019-04-26T06:50:42.239Z,13.20
2019-04-26T06:53:16.627Z,13.20
2019-04-26T06:55:49.903Z,13.10
2019-04-26T06:58:46.176Z,13.10
2019-04-26T07:01:33.190Z,13.20
2019-04-26T07:04:26.422Z,13.20
2019-04-26T07:07:20.397Z,13.10
2019-04-26T07:10:04.298Z,13.20
2019-04-26T07:12:40.459Z,13.20
2019-04-26T07:15:47.079Z,13.20
2019-04-26T07:18:36.828Z,13.20
2019-04-26T07:21:19.268Z,13.10
2019-04-26T07:24:17.577Z,13.10
2019-04-26T07:27:09.015Z,13.10
2019-04-26T07:30:01.904Z,13.10
2019-04-26T07:33:04.182Z,13.00
2019-04-26T07:35:41.390Z,13.00
2019-04-26T07:38:55.727Z,13.00
2019-04-26T07:41:57.737Z,13.10
2019-04-26T07:44:48.986Z,13.10
2019-04-26T07:47:39.840Z,13.00
2019-04-26T07:50:44.414Z,13.10
2019-04-26T07:53:37.076Z,13.00
2019-04-26T07:56:09.323Z,13.00
2019-04-26T07:59:16.552Z,13.00
2019-04-26T08:02:21.654Z,13.00
2019-04-26T08:05:09.501Z,13.10
2019-04-26T08:07:50.718Z,13.30
2019-04-26T08:10:25.542Z,13.20
2019-04-26T08:13:04.459Z,13.20
2019-04-26T08:15:42.972Z,13.10
2019-04-26T08:18:31.051Z,13.00
2019-04-26T08:21:10.038Z,13.10
2019-04-26T08:23:42.288Z,13.20
2019-04-26T08:26:15.510Z,13.20
2019-04-26T08:28:46.746Z,13.30
2019-04-26T08:31:21.592Z,13.30
2019-04-26T08:33:53.600Z,13.30
2019-04-26T08:36:28.725Z,13.30
2019-04-26T08:39:05.946Z,13.30
2019-04-26T08:41:39.084Z,13.10
2019-04-26T08:47:01.186Z,13.20
2019-04-26T08:49:39.155Z,13.20
2019-04-26T08:52:14.207Z,13.20
2019-04-26T08:54:43.621Z,13.00
2019-04-26T08:57:14.651Z,13.00
2019-04-26T08:59:49.168Z,13.00
2019-04-26T09:02:41.468Z,13.00
2019-04-26T09:05:25.425Z,13.00
2019-04-26T09:07:58.912Z,13.10
2019-04-26T09:10:30.605Z,13.20
2019-04-26T09:13:04.223Z,13.30
2019-04-26T09:16:01.749Z,13.40
2019-04-26T09:18:42.390Z,13.50
2019-04-26T09:21:01.224Z,13.70
2019-04-26T09:23:53.569Z,13.80
2019-04-26T09:29:34.069Z,13.70
2019-04-26T09:32:13.169Z,13.70
2019-04-26T09:34:45.776Z,13.60
2019-04-26T09:37:19.239Z,13.60
2019-04-26T09:39:48.307Z,13.50
2019-04-26T09:42:42.185Z,13.40
2019-04-26T09:45:25.459Z,13.40
2019-04-26T09:48:00.025Z,13.40
2019-04-26T09:50:41.709Z,13.40
2019-04-26T09:53:13.897Z,13.30
2019-04-26T09:55:45.272Z,13.30
2019-04-26T09:58:14.774Z,13.30
2019-04-26T10:00:48.474Z,13.20
2019-04-26T10:03:26.579Z,13.20
2019-04-26T10:05:57.089Z,13.10
2019-04-26T10:08:28.126Z,13.00
2019-04-26T10:11:05.797Z,13.00
2019-04-26T10:13:38.336Z,13.00
2019-04-26T10:16:13.783Z,12.90
2019-04-26T10:18:44.227Z,12.80
2019-04-26T10:21:23.961Z,12.80
2019-04-26T10:23:52.677Z,12.90
2019-04-26T10:26:32.144Z,13.00
2019-04-26T10:29:00.891Z,13.20
2019-04-26T10:31:29.747Z,13.30
2019-04-26T10:33:59.101Z,13.40
2019-04-26T10:36:30.110Z,13.30
2019-04-26T10:38:59.815Z,13.20
2019-04-26T10:41:31.886Z,13.20
2019-04-26T10:44:01.436Z,13.30
2019-04-26T10:46:31.639Z,13.40
2019-04-26T10:49:08.975Z,13.20
2019-04-26T10:51:38.577Z,13.00
2019-04-26T10:54:13.365Z,12.90
2019-04-26T10:56:46.887Z,12.80
2019-04-26T10:59:22.656Z,12.80
2019-04-26T11:01:57.613Z,12.80
2019-04-26T11:04:28.749Z,12.70
2019-04-26T11:07:02.027Z,12.60
2019-04-26T11:09:42.746Z,12.50
2019-04-26T11:12:18.843Z,12.50
2019-04-26T11:14:53.302Z,12.50
2019-04-26T11:17:23.456Z,12.50
2019-04-26T11:19:52.619Z,12.50
2019-04-26T11:22:29.098Z,12.50
2019-04-26T11:24:53.742Z,12.60
2019-04-26T11:27:27.710Z,12.70
2019-04-26T11:30:00.076Z,12.80
2019-04-26T11:32:28.425Z,12.80
2019-04-26T11:34:58.760Z,12.70
2019-04-26T11:37:30.857Z,12.70
2019-04-26T11:39:59.608Z,12.50
2019-04-26T11:42:28.493Z,12.40
2019-04-26T11:45:06.078Z,12.30
2019-04-26T11:47:29.359Z,12.30
2019-04-26T11:49:59.915Z,12.30
2019-04-26T11:52:35.912Z,12.30
2019-04-26T11:55:19.546Z,12.40
2019-04-26T11:57:50.541Z,12.50
2019-04-26T12:00:22.671Z,12.60
2019-04-26T12:02:54.024Z,12.60
2019-04-26T12:05:24.558Z,12.60
2019-04-26T12:08:00.836Z,12.70
2019-04-26T12:10:33.745Z,12.80
2019-04-26T12:13:10.414Z,12.90
2019-04-26T12:15:43.678Z,13.00
2019-04-26T12:18:16.561Z,13.00
2019-04-26T12:20:45.266Z,12.90
2019-04-26T12:23:20.376Z,13.00
2019-04-26T12:25:48.291Z,12.80
2019-04-26T12:28:17.199Z,12.90
2019-04-26T12:30:45.958Z,12.90
2019-04-26T12:33:15.721Z,12.80
2019-04-26T12:35:44.457Z,12.60
2019-04-26T12:38:18.792Z,12.40
2019-04-26T12:40:51.632Z,12.30
2019-04-26T12:43:24.539Z,12.20
2019-04-26T12:45:59.666Z,12.10
2019-04-26T12:48:34.223Z,12.00
2019-04-26T12:51:04.443Z,12.00
2019-04-26T12:53:33.716Z,12.00
2019-04-26T12:56:04.810Z,11.90
2019-04-26T12:58:33.733Z,11.90
2019-04-26T13:01:02.590Z,11.90
2019-04-26T13:03:31.342Z,11.80
2019-04-26T13:06:01.803Z,11.70
2019-04-26T13:08:33.012Z,11.70
2019-04-26T13:11:15.108Z,11.70
2019-04-26T13:13:58.098Z,11.70
2019-04-26T13:16:34.160Z,11.70
2019-04-26T13:19:08.557Z,11.80
2019-04-26T13:21:44.543Z,11.80
2019-04-26T13:24:13.969Z,11.70
2019-04-26T13:26:42.988Z,11.60
2019-04-26T13:29:17.531Z,11.50
2019-04-26T13:31:48.014Z,11.40
2019-04-26T13:34:21.185Z,11.30
2019-04-26T13:36:52.645Z,11.30
2019-04-26T13:39:29.951Z,11.30
2019-04-26T13:42:04.601Z,11.40
2019-04-26T13:44:48.986Z,11.40
2019-04-26T13:47:21.204Z,11.40
2019-04-26T13:49:52.316Z,11.50
2019-04-26T13:52:25.061Z,11.40
2019-04-26T13:55:02.191Z,11.40
2019-04-26T13:57:31.254Z,11.40
2019-04-26T14:00:02.530Z,11.40
2019-04-26T14:02:30.349Z,11.40
2019-04-26T14:04:59.646Z,11.40
2019-04-26T14:07:30.645Z,11.50
2019-04-26T14:10:02.191Z,11.50
2019-04-26T14:12:32.471Z,11.50
2019-04-26T14:15:08.407Z,11.50
2019-04-26T14:17:45.445Z,11.50
2019-04-26T14:20:19.190Z,11.40
2019-04-26T14:23:11.351Z,11.40
2019-04-26T14:25:55.503Z,11.30
2019-04-26T14:28:26.855Z,11.30
2019-04-26T14:30:58.548Z,11.30
2019-04-26T14:33:30.716Z,11.30
2019-04-26T14:36:17.429Z,11.30
2019-04-26T14:38:44.274Z,11.20
2019-04-26T14:41:13.948Z,11.20
2019-04-26T14:43:45.071Z,11.20
2019-04-26T14:46:28.259Z,11.30
2019-04-26T14:49:01.435Z,11.30
2019-04-26T14:51:26.937Z,11.30
2019-04-26T14:53:58.650Z,11.30
2019-04-26T14:56:29.307Z,11.30
2019-04-26T14:59:01.815Z,11.20
2019-04-26T15:01:35.789Z,11.20
2019-04-26T15:04:23.233Z,11.10
2019-04-26T15:06:58.175Z,11.10
2019-04-26T15:09:32.725Z,11.00
2019-04-26T15:12:01.079Z,11.00
2019-04-26T15:14:28.806Z,11.00
2019-04-26T15:17:00.364Z,11.00
2019-04-26T15:19:35.400Z,11.00
2019-04-26T15:22:10.147Z,10.90
2019-04-26T15:24:38.627Z,10.90
2019-04-26T15:27:06.138Z,10.90
2019-04-26T15:29:36.688Z,11.00
2019-04-26T15:32:08.329Z,11.00
2019-04-26T15:34:41.353Z,11.00
2019-04-26T15:37:10.237Z,11.00
2019-04-26T15:39:44.470Z,11.00
2019-04-26T15:42:25.228Z,11.10
2019-04-26T15:45:08.082Z,11.10
2019-04-26T15:48:02.277Z,11.10
2019-04-26T15:50:40.886Z,11.00
2019-04-26T15:53:12.759Z,10.80
2019-04-26T15:56:03.742Z,10.80
2019-04-26T15:58:33.944Z,10.80
2019-04-26T16:01:06.709Z,10.70
2019-04-26T16:03:36.875Z,10.70
2019-04-26T16:06:08.200Z,10.80
2019-04-26T16:08:42.542Z,10.70
2019-04-26T16:11:18.866Z,10.70
2019-04-26T16:13:56.298Z,10.60
2019-04-26T16:16:34.163Z,10.70
2019-04-26T16:19:02.989Z,10.70
2019-04-26T16:21:36.284Z,10.60
2019-04-26T16:24:08.186Z,10.60
2019-04-26T16:26:37.242Z,10.70
2019-04-26T16:29:09.125Z,10.70
2019-04-26T16:31:42.139Z,10.70
2019-04-26T16:34:14.867Z,10.70
2019-04-26T16:36:45.248Z,10.70
2019-04-26T16:39:16.164Z,10.70
2019-04-26T16:41:46.348Z,10.60
2019-04-26T16:44:19.320Z,10.60
2019-04-26T16:46:47.226Z,10.60
2019-04-26T16:49:15.625Z,10.50
2019-04-26T16:51:44.421Z,10.40
2019-04-26T16:54:20.978Z,10.40
2019-04-26T16:56:45.240Z,10.30
2019-04-26T16:59:22.560Z,10.30
2019-04-26T17:01:47.423Z,10.30
2019-04-26T17:04:20.060Z,10.30
2019-04-26T17:06:46.951Z,10.30
2019-04-26T17:09:17.147Z,10.30
2019-04-26T17:11:49.627Z,10.30
2019-04-26T17:14:18.381Z,10.30
2019-04-26T17:16:57.343Z,10.30
2019-04-26T17:19:29.644Z,10.30
2019-04-26T17:22:02.112Z,10.30
2019-04-26T17:24:53.547Z,10.30
2019-04-26T17:27:29.253Z,10.40
2019-04-26T17:29:58.335Z,10.40
2019-04-26T17:32:31.408Z,10.30
2019-04-26T17:35:07.353Z,10.20
2019-04-26T17:37:35.384Z,10.20
2019-04-26T17:40:07.130Z,10.20
2019-04-26T17:42:55.902Z,10.10
2019-04-26T17:45:27.316Z,10.10
2019-04-26T17:48:01.856Z,10.20
2019-04-26T17:50:30.972Z,10.10
2019-04-26T17:53:10.749Z,10.10
2019-04-26T17:55:50.284Z,10.20
2019-04-26T17:58:27.599Z,10.10
2019-04-26T18:00:52.115Z,10.10
2019-04-26T18:03:25.255Z,10.10
2019-04-26T18:06:13.925Z,10.00
2019-04-26T18:08:51.863Z,10.00
2019-04-26T18:11:22.435Z,10.10
2019-04-26T18:13:52.212Z,10.10
2019-04-26T18:16:29.259Z,10.10
2019-04-26T18:19:15.715Z,10.10
2019-04-26T18:21:59.773Z,10.20
2019-04-26T18:24:40.383Z,10.20
2019-04-26T18:27:03.821Z,10.20
2019-04-26T18:29:33.669Z,10.20
2019-04-26T18:32:04.968Z,10.30
2019-04-26T18:34:40.523Z,10.30
2019-04-26T18:37:15.096Z,10.20
2019-04-26T18:39:48.063Z,10.20
2019-04-26T18:42:20.259Z,10.10
2019-04-26T18:44:51.055Z,10.10
2019-04-26T18:47:28.577Z,10.10
2019-04-26T18:50:01.308Z,10.10
2019-04-26T18:52:33.054Z,10.10
2019-04-26T18:55:06.576Z,10.00
2019-04-26T18:57:47.349Z,10.00
2019-04-26T19:00:21.585Z,10.10
2019-04-26T19:02:56.750Z,10.10
2019-04-26T19:05:30.450Z,10.10
2019-04-26T19:08:00.653Z,10.10
2019-04-26T19:10:58.071Z,10.00
2019-04-26T19:13:37.596Z,10.00
2019-04-26T19:16:21.787Z,10.00
2019-04-26T19:18:52.232Z,9.90
2019-04-26T19:21:40.539Z,9.80
2019-04-26T19:24:19.482Z,9.80
2019-04-26T19:27:01.745Z,9.70
2019-04-26T19:29:35.909Z,9.60
2019-04-26T19:32:06.410Z,9.60
2019-04-26T19:34:43.835Z,9.60
2019-04-26T19:37:17.275Z,9.50
2019-04-26T19:39:47.516Z,9.60
2019-04-26T19:42:16.359Z,9.70
2019-04-26T19:45:09.440Z,9.60
2019-04-26T19:47:25.038Z,9.60
2019-04-26T19:50:03.230Z,9.60
2019-04-26T19:52:46.827Z,9.60
2019-04-26T19:55:28.956Z,9.40
2019-04-26T19:58:09.697Z,9.40
2019-04-26T20:00:43.396Z,9.40
2019-04-26T20:03:18.605Z,9.50
2019-04-26T20:06:00.267Z,9.40
2019-04-26T20:08:35.488Z,9.40
2019-04-26T20:11:06.837Z,9.40
2019-04-26T20:13:42.630Z,9.40
2019-04-26T20:16:14.179Z,9.40
2019-04-26T20:18:52.353Z,9.50
2019-04-26T20:21:22.828Z,9.50
2019-04-26T20:23:54.479Z,9.50
2019-04-26T20:26:22.684Z,9.40
2019-04-26T20:28:54.277Z,9.40
2019-04-26T20:31:27.843Z,9.40
2019-04-26T20:33:58.484Z,9.30
2019-04-26T20:36:28.583Z,9.40
2019-04-26T20:39:12.451Z,9.40
2019-04-26T20:41:46.793Z,9.30
2019-04-26T20:44:28.880Z,9.30
2019-04-26T20:46:52.873Z,9.30
2019-04-26T20:49:22.453Z,9.40
2019-04-26T20:51:51.907Z,9.30
2019-04-26T20:54:29.495Z,9.30
2019-04-26T20:57:01.789Z,9.40
2019-04-26T20:59:30.876Z,9.40
2019-04-26T21:02:05.458Z,9.40
2019-04-26T21:04:38.282Z,9.40
2019-04-26T21:07:06.683Z,9.30
2019-04-26T21:09:40.822Z,9.30
2019-04-26T21:12:07.902Z,9.30
2019-04-26T21:14:45.538Z,9.40
2019-04-26T21:17:24.243Z,9.30
2019-04-26T21:19:58.426Z,9.30
2019-04-26T21:22:31.613Z,9.30
2019-04-26T21:28:24.933Z,9.20
2019-04-26T21:31:07.608Z,9.20
2019-04-26T21:33:55.310Z,9.10
2019-04-26T21:36:27.290Z,9.20
2019-04-26T21:39:07.513Z,9.20
2019-04-26T21:41:45.129Z,9.20
2019-04-26T21:44:15.831Z,9.20
2019-04-26T21:46:49.649Z,9.20
2019-04-26T21:49:20.200Z,9.10
2019-04-26T21:51:54.220Z,9.20
2019-04-26T21:54:19.467Z,9.20
2019-04-26T21:56:49.966Z,9.20
2019-04-26T21:59:18.676Z,9.10
2019-04-26T22:01:58.797Z,9.10
2019-04-26T22:04:34.184Z,9.10
2019-04-26T22:07:05.007Z,9.00
2019-04-26T22:09:55.459Z,9.10
2019-04-26T22:12:27.392Z,9.00
2019-04-26T22:15:03.495Z,9.10
2019-04-26T22:17:34.788Z,9.00
2019-04-26T22:20:12.904Z,9.00
2019-04-26T22:22:44.304Z,9.00
2019-04-26T22:25:22.731Z,9.00
2019-04-26T22:28:00.095Z,9.00
2019-04-26T22:30:44.088Z,9.00
2019-04-26T22:33:13.114Z,9.00
2019-04-26T22:35:43.221Z,9.00
2019-04-26T22:38:17.555Z,9.00
2019-04-26T22:40:48.558Z,9.00
2019-04-26T22:43:26.384Z,9.00
2019-04-26T22:46:05.005Z,9.00
2019-04-26T22:48:36.292Z,9.00
2019-04-26T22:51:06.647Z,9.00
2019-04-26T22:53:35.419Z,8.90
2019-04-26T22:56:05.573Z,8.90
2019-04-26T22:58:34.286Z,8.90
2019-04-26T23:01:06.207Z,8.90
2019-04-26T23:03:41.091Z,8.90
2019-04-26T23:06:33.729Z,8.80
2019-04-26T23:09:11.526Z,8.80
2019-04-26T23:11:54.831Z,8.80
2019-04-26T23:14:59.435Z,8.70
2019-04-26T23:17:37.150Z,8.70
2019-04-26T23:20:29.116Z,8.70
2019-04-26T23:22:55.768Z,8.60
2019-04-26T23:25:27.790Z,8.70
2019-04-26T23:27:58.167Z,8.60
2019-04-26T23:30:27.749Z,8.60
2019-04-26T23:32:58.289Z,8.60
2019-04-26T23:35:43.252Z,8.60
2019-04-26T23:38:21.347Z,8.60
2019-04-26T23:41:01.089Z,8.60
2019-04-26T23:43:30.929Z,8.60
2019-04-26T23:45:59.589Z,8.60
2019-04-26T23:48:28.264Z,8.60
2019-04-26T23:50:59.961Z,8.60
2019-04-26T23:53:28.170Z,8.60
2019-04-26T23:55:56.849Z,8.60
2019-04-26T23:58:25.471Z,8.60
